Time;durP1;ratioP1;P1;durP2;ratioP2;P2;SDS_P1;SDS_P2;PMS_P1;PMS_P2;Temp;Humidity;BMP_temperature;BMP_pressure;BME280_temperature;BME280_humidity;BME280_pressure;Samples;Min_cycle;Max_cycle;Signal;HPM_P1;HPM_P2
2021/12/07 00:02:09;;;;;;;32.55;15.50;;;2.60;99.90;;;;;;5052759;28;20076;-78
2021/12/07 00:04:36;;;;;;;31.60;15.52;;;2.60;99.90;;;;;;5069354;28;20374;-79
2021/12/07 00:07:02;;;;;;;;;;;3.10;99.90;;;;;;5053169;28;20033;-79
2021/12/07 00:09:28;;;;;;;32.85;15.48;;;2.60;99.90;;;;;;5035716;28;19985;-79
2021/12/07 00:11:56;;;;;;;33.13;16.15;;;3.90;99.90;;;;;;5052472;28;20040;-79
2021/12/07 00:14:26;;;;;;;35.22;17.38;;;2.60;99.90;;;;;;5020368;28;20133;-79
2021/12/07 00:16:54;;;;;;;35.97;17.85;;;2.60;99.90;;;;;;5069067;28;20040;-79
2021/12/07 00:19:21;;;;;;;28.70;13.48;;;2.60;99.90;;;;;;5052529;28;20094;-79
2021/12/07 00:21:47;;;;;;;36.00;16.73;;;2.50;99.90;;;;;;5052163;28;20072;-78
2021/12/07 00:24:14;;;;;;;33.83;16.50;;;4.10;99.90;;;;;;5052585;28;20044;-79
2021/12/07 00:26:41;;;;;;;30.58;15.98;;;3.60;99.90;;;;;;5050264;28;20109;-78
2021/12/07 00:29:08;;;;;;;33.85;16.42;;;2.60;99.90;;;;;;5073333;28;20041;-78
2021/12/07 00:31:49;;;;;;;33.58;16.50;;;2.50;99.90;;;;;;5073359;28;20040;-78
2021/12/07 00:36:46;;;;;;;31.80;15.68;;;3.90;99.90;;;;;;5072824;28;20522;-78
2021/12/07 00:39:17;;;;;;;32.47;15.77;;;2.40;99.90;;;;;;5073264;28;20369;-78
2021/12/07 00:41:43;;;;;;;32.10;15.90;;;2.70;99.90;;;;;;5055981;28;20056;-78
2021/12/07 00:44:09;;;;;;;31.45;15.10;;;3.30;99.90;;;;;;5056347;28;20115;-78
2021/12/07 00:46:35;;;;;;;25.65;13.10;;;3.80;99.90;;;;;;5073241;28;20040;-78
2021/12/07 00:49:02;;;;;;;28.02;14.48;;;2.40;99.90;;;;;;5055793;28;20032;-78
2021/12/07 00:51:28;;;;;;;31.25;15.68;;;3.40;99.90;;;;;;5072973;28;20036;-78
2021/12/07 00:53:54;;;;;;;25.88;13.75;;;2.30;99.90;;;;;;5056151;28;20028;-78
2021/12/07 00:56:20;;;;;;;31.98;16.17;;;2.20;99.90;;;;;;5039494;28;20098;-78
2021/12/07 00:58:45;;;;;;;32.38;16.13;;;3.30;99.90;;;;;;5055918;28;20392;-80
2021/12/07 01:01:16;;;;;;;31.98;15.38;;;2.00;99.90;;;;;;5073019;28;20032;-79
2021/12/07 01:03:41;;;;;;;33.08;14.70;;;2.20;99.90;;;;;;5055522;28;20127;-78
2021/12/07 01:25:16;;;;;;;36.42;16.05;;;2.80;99.90;;;;;;5072244;28;20040;-78
2021/12/07 01:27:43;;;;;;;;;;;1.60;99.90;;;;;;5072309;28;20093;-78
2021/12/07 01:30:19;;;;;;;32.95;15.88;;;1.50;99.90;;;;;;5063125;28;19924;-78
2021/12/07 01:38:04;;;;;;;31.45;15.40;;;1.50;99.90;;;;;;5071763;28;20044;-78
2021/12/07 01:51:30;;;;;;;32.20;16.08;;;2.50;99.90;;;;;;5087856;28;20051;-78
2021/12/07 01:59:35;;;;;;;36.20;16.77;;;1.30;99.90;;;;;;5071647;28;20048;-78
2021/12/07 02:02:07;;;;;;;30.83;15.02;;;1.50;99.90;;;;;;5071484;28;20044;-78
2021/12/07 02:04:33;;;;;;;27.88;14.50;;;1.50;99.90;;;;;;5071627;28;20044;-78
2021/12/07 02:06:59;;;;;;;34.75;17.15;;;2.90;99.90;;;;;;5071543;28;20680;-78
2021/12/07 02:09:25;;;;;;;31.38;15.50;;;1.50;99.90;;;;;;5071520;28;20041;-78
2021/12/07 02:11:58;;;;;;;38.28;17.40;;;1.40;99.90;;;;;;5054568;28;20052;-78
2021/12/07 02:14:24;;;;;;;34.03;16.65;;;1.50;99.90;;;;;;5071514;28;20044;-78
2021/12/07 02:16:55;;;;;;;30.00;15.48;;;1.50;99.90;;;;;;5071157;28;20390;-78
2021/12/07 02:19:22;;;;;;;32.92;15.85;;;1.50;99.90;;;;;;5071578;28;20429;-78
2021/12/07 02:21:48;;;;;;;30.17;15.23;;;1.50;99.90;;;;;;5054368;28;20040;-78
2021/12/07 02:24:15;;;;;;;33.50;16.13;;;1.60;99.90;;;;;;5054647;28;20037;-78
2021/12/07 02:26:41;;;;;;;32.30;17.17;;;1.50;99.90;;;;;;5054383;28;20101;-79
2021/12/07 02:29:07;;;;;;;33.15;16.98;;;1.60;99.90;;;;;;5070662;28;20037;-79
2021/12/07 02:31:33;;;;;;;27.67;14.45;;;1.90;99.90;;;;;;5037895;28;20063;-79
2021/12/07 02:33:59;;;;;;;;;;;1.60;99.90;;;;;;5071523;28;20036;-79
2021/12/07 02:36:25;;;;;;;30.45;15.75;;;3.10;99.90;;;;;;5054313;28;19916;-79
2021/12/07 02:38:51;;;;;;;24.80;13.43;;;3.20;99.90;;;;;;5070650;28;20051;-79
2021/12/07 02:41:17;;;;;;;31.05;16.27;;;2.80;99.90;;;;;;5054387;28;20033;-78
2021/12/07 02:43:44;;;;;;;26.65;13.32;;;2.60;99.90;;;;;;5037518;28;20045;-79
2021/12/07 02:46:10;;;;;;;;;;;3.00;99.90;;;;;;5037740;28;20062;-79
2021/12/07 02:48:36;;;;;;;30.15;15.35;;;2.20;99.90;;;;;;5054075;28;19917;-79
2021/12/07 02:51:03;;;;;;;30.52;15.38;;;3.10;99.90;;;;;;5070360;28;20119;-79
2021/12/07 02:53:31;;;;;;;35.20;17.77;;;1.60;99.90;;;;;;5070737;28;20037;-79
2021/12/07 02:55:59;;;;;;;32.95;16.00;;;3.20;99.90;;;;;;5053543;28;20047;-79
2021/12/07 02:58:25;;;;;;;31.58;15.65;;;1.70;99.90;;;;;;5053968;28;20044;-80
2021/12/07 03:01:01;;;;;;;29.23;14.30;;;2.70;99.90;;;;;;5053954;28;20119;-80
2021/12/07 03:03:30;;;;;;;36.85;17.45;;;1.80;99.90;;;;;;5053983;28;20340;-79
2021/12/07 03:28:10;;;;;;;30.65;14.27;;;1.60;99.90;;;;;;5053726;28;20066;-80
2021/12/07 03:30:36;;;;;;;28.83;13.27;;;1.60;99.90;;;;;;5052521;28;20500;-80
2021/12/07 03:33:03;;;;;;;28.25;13.95;;;1.60;99.90;;;;;;5067788;28;20036;-80
2021/12/07 03:35:29;;;;;;;;;;;1.60;99.90;;;;;;5036260;28;20040;-79
2021/12/07 03:37:55;;;;;;;28.70;13.07;;;2.00;99.90;;;;;;5059250;28;19924;-80
2021/12/07 03:40:22;;;;;;;27.90;14.13;;;1.50;99.90;;;;;;5053271;28;20408;-80
2021/12/07 03:42:48;;;;;;;;;;;1.50;99.90;;;;;;5053873;28;20068;-80
2021/12/07 03:45:14;;;;;;;30.92;14.90;;;1.50;99.90;;;;;;5069551;28;20256;-80
2021/12/07 03:47:40;;;;;;;28.13;14.38;;;1.50;99.90;;;;;;5069243;28;20499;-80
2021/12/07 03:50:08;;;;;;;30.30;15.00;;;1.40;99.90;;;;;;5052794;28;20445;-80
2021/12/07 03:52:34;;;;;;;29.88;14.57;;;1.40;99.90;;;;;;5052742;28;20037;-80
2021/12/07 03:55:01;;;;;;;37.60;15.32;;;2.80;99.90;;;;;;5052345;28;20045;-80
2021/12/07 03:57:34;;;;;;;31.95;14.20;;;3.20;99.90;;;;;;5052504;28;20089;-80
2021/12/07 04:00:03;;;;;;;29.45;14.15;;;3.00;99.90;;;;;;5036625;28;20064;-80
2021/12/07 04:02:29;;;;;;;27.65;12.93;;;1.30;99.90;;;;;;5068999;28;20093;-80
2021/12/07 04:04:58;;;;;;;32.08;14.57;;;2.40;99.90;;;;;;5069324;28;20439;-80
2021/12/07 04:07:24;;;;;;;31.05;14.13;;;1.20;99.90;;;;;;5051282;28;20528;-80
2021/12/07 04:09:50;;;;;;;31.90;13.75;;;1.30;99.90;;;;;;5052624;28;20497;-79
2021/12/07 04:12:16;;;;;;;28.20;13.65;;;2.70;99.90;;;;;;5052601;28;20063;-80
2021/12/07 04:14:41;;;;;;;32.63;14.50;;;1.20;99.90;;;;;;5052703;28;20041;-80
2021/12/07 04:17:07;;;;;;;27.35;13.50;;;1.20;99.90;;;;;;5035781;28;20051;-80
2021/12/07 04:19:33;;;;;;;29.40;13.10;;;1.20;99.90;;;;;;5035801;28;20040;-80
2021/12/07 04:21:58;;;;;;;26.33;11.90;;;1.20;99.90;;;;;;5035424;28;20041;-80
2021/12/07 04:24:27;;;;;;;29.25;13.40;;;2.80;99.90;;;;;;5019483;28;20032;-80
2021/12/07 04:26:54;;;;;;;28.85;13.73;;;1.20;99.90;;;;;;5036001;28;20040;-80
2021/12/07 04:29:20;;;;;;;29.80;13.60;;;2.80;99.90;;;;;;5052058;28;20037;-79
2021/12/07 04:31:46;;;;;;;30.15;13.48;;;2.30;99.90;;;;;;5052538;28;20059;-79
2021/12/07 04:34:12;;;;;;;30.20;12.73;;;2.60;99.90;;;;;;5068835;28;20041;-79
2021/12/07 04:36:38;;;;;;;30.90;13.80;;;1.10;99.90;;;;;;5052382;28;20508;-78
2021/12/07 04:39:04;;;;;;;28.65;12.18;;;2.50;99.90;;;;;;5052070;28;20275;-79
2021/12/07 04:41:33;;;;;;;27.75;12.77;;;2.60;99.90;;;;;;5035413;28;20074;-79
2021/12/07 04:44:01;;;;;;;33.03;14.10;;;1.10;99.90;;;;;;5051971;28;20075;-79
2021/12/07 04:46:52;;;;;;;29.35;12.32;;;1.00;99.90;;;;;;5052126;28;20064;-79
2021/12/07 05:00:14;;;;;;;29.65;12.75;;;2.30;99.90;;;;;;5067749;28;20040;-79
2021/12/07 05:02:43;;;;;;;27.73;12.18;;;1.10;99.90;;;;;;5068725;28;20044;-79
2021/12/07 05:05:11;;;;;;;30.48;12.45;;;1.20;99.90;;;;;;5064845;28;20048;-81
2021/12/07 05:07:42;;;;;;;28.50;12.23;;;2.80;99.90;;;;;;5034580;28;20032;-79
2021/12/07 05:10:22;;;;;;;26.92;11.52;;;2.80;99.90;;;;;;5068364;28;20420;-80
2021/12/07 05:39:38;;;;;;;32.88;11.63;;;1.70;99.90;;;;;;5058230;28;20106;-81
2021/12/07 05:42:04;;;;;;;34.35;12.27;;;1.10;99.90;;;;;;5022958;28;20458;-81
2021/12/07 05:44:29;;;;;;;31.15;12.18;;;1.00;99.90;;;;;;5056463;28;20040;-79
2021/12/07 05:46:55;;;;;;;34.85;11.57;;;1.00;99.90;;;;;;5067276;28;20041;-80
2021/12/07 05:49:21;;;;;;;29.45;12.10;;;1.00;99.90;;;;;;5038951;28;20119;-81
2021/12/07 05:51:47;;;;;;;33.03;11.93;;;1.00;99.90;;;;;;5071851;28;20116;-80
2021/12/07 05:54:13;;;;;;;28.25;11.32;;;1.00;99.90;;;;;;5055185;28;20043;-80
2021/12/07 05:56:39;;;;;;;30.50;11.05;;;2.60;99.90;;;;;;5055464;28;20036;-79
2021/12/07 05:59:05;;;;;;;30.67;12.27;;;1.10;99.90;;;;;;5071633;28;20071;-80
2021/12/07 06:01:30;;;;;;;30.20;11.43;;;1.10;99.90;;;;;;5072263;28;20703;-79
2021/12/07 06:03:56;;;;;;;27.20;11.68;;;1.10;99.90;;;;;;5071825;28;20043;-77
2021/12/07 06:06:22;;;;;;;28.88;11.85;;;1.60;99.90;;;;;;5054665;28;20430;-78
2021/12/07 06:08:48;;;;;;;29.03;11.10;;;1.20;99.90;;;;;;5055029;28;20181;-78
2021/12/07 06:11:13;;;;;;;27.58;10.45;;;2.60;99.90;;;;;;5070829;28;20299;-78
2021/12/07 06:13:39;;;;;;;22.20;9.63;;;1.30;99.90;;;;;;5071288;28;20040;-79
2021/12/07 06:16:07;;;;;;;23.98;10.55;;;1.80;99.90;;;;;;5070824;28;20035;-78
2021/12/07 06:18:35;;;;;;;25.67;10.05;;;2.80;99.90;;;;;;5071560;28;20090;-78
2021/12/07 06:21:02;;;;;;;22.55;9.73;;;1.30;99.90;;;;;;5038865;28;20043;-78
2021/12/07 06:23:28;;;;;;;23.42;8.93;;;1.30;99.90;;;;;;5070955;28;20041;-78
2021/12/07 06:25:54;;;;;;;19.63;8.27;;;1.30;99.90;;;;;;5070879;28;20047;-78
2021/12/07 06:28:20;;;;;;;23.35;9.15;;;1.60;99.90;;;;;;5070887;28;20102;-78
2021/12/07 06:30:48;;;;;;;23.55;9.40;;;2.60;99.90;;;;;;5054947;28;20075;-78
2021/12/07 06:33:15;;;;;;;19.55;7.90;;;1.40;99.90;;;;;;5054549;28;20037;-78
2021/12/07 06:35:41;;;;;;;19.42;7.45;;;1.30;99.90;;;;;;5071229;28;20496;-79
2021/12/07 06:38:07;;;;;;;;;;;1.30;99.90;;;;;;5071401;28;20528;-78
2021/12/07 06:40:33;;;;;;;18.63;7.70;;;1.60;99.90;;;;;;5070957;28;19970;-78
2021/12/07 06:43:00;;;;;;;18.88;8.73;;;1.30;99.90;;;;;;5054450;28;20512;-78
2021/12/07 06:45:27;;;;;;;19.58;7.90;;;1.30;99.90;;;;;;5071130;28;20516;-79
2021/12/07 06:47:54;;;;;;;23.58;8.85;;;1.40;99.90;;;;;;5054335;28;20036;-78
2021/12/07 06:50:20;;;;;;;18.48;7.60;;;2.00;99.90;;;;;;5065675;28;20098;-78
2021/12/07 06:52:46;;;;;;;19.90;8.93;;;1.40;99.90;;;;;;5054455;28;20071;-78
2021/12/07 06:55:12;;;;;;;15.10;6.35;;;1.40;99.90;;;;;;5070898;28;20396;-78
2021/12/07 06:57:37;;;;;;;26.25;8.00;;;1.40;99.90;;;;;;5070773;28;20040;-78
2021/12/07 07:00:06;;;;;;;18.63;7.18;;;1.40;99.90;;;;;;5070782;28;20083;-78
2021/12/07 07:02:32;;;;;;;17.08;7.97;;;1.40;99.90;;;;;;5053618;28;20032;-79
2021/12/07 07:04:58;;;;;;;18.15;7.03;;;1.70;99.90;;;;;;5070744;28;20032;-78
2021/12/07 07:07:24;;;;;;;17.42;7.82;;;1.30;99.90;;;;;;5070742;28;20029;-78
2021/12/07 07:09:51;;;;;;;22.25;7.85;;;1.20;99.90;;;;;;5053501;28;20141;-78
2021/12/07 07:12:18;;;;;;;20.30;8.13;;;1.30;99.90;;;;;;5054081;28;20408;-78
2021/12/07 07:14:43;;;;;;;;;;;2.80;99.90;;;;;;5054183;28;20040;-78
2021/12/07 07:17:09;;;;;;;20.42;7.88;;;1.20;99.90;;;;;;5067807;28;20327;-78
2021/12/07 07:19:35;;;;;;;19.38;8.13;;;1.20;99.90;;;;;;5053628;28;20039;-78
2021/12/07 07:22:02;;;;;;;20.27;8.13;;;1.20;99.90;;;;;;5053912;28;20689;-78
2021/12/07 07:24:32;;;;;;;19.25;8.27;;;2.50;99.90;;;;;;5037077;28;20314;-78
2021/12/07 07:26:59;;;;;;;18.45;7.90;;;1.50;99.90;;;;;;5070230;28;20090;-78
2021/12/07 07:29:25;;;;;;;21.38;8.60;;;1.10;99.90;;;;;;5069648;28;20042;-78
2021/12/07 07:31:51;;;;;;;23.55;8.07;;;2.50;99.90;;;;;;5037092;28;20041;-79
2021/12/07 07:34:16;;;;;;;17.58;8.90;;;1.00;99.90;;;;;;5036067;28;20135;-78
2021/12/07 07:36:42;;;;;;;19.30;8.93;;;1.10;99.90;;;;;;5052451;28;20477;-78
2021/12/07 07:39:08;;;;;;;20.83;8.73;;;1.10;99.90;;;;;;5053416;28;20040;-79
2021/12/07 07:41:34;;;;;;;20.58;8.57;;;1.10;99.90;;;;;;5053625;28;20492;-79
2021/12/07 07:43:59;;;;;;;17.45;7.82;;;1.20;99.90;;;;;;5054379;28;20400;-79
2021/12/07 07:46:29;;;;;;;24.83;8.18;;;1.20;99.90;;;;;;5053567;28;20123;-79
2021/12/07 07:48:55;;;;;;;25.00;7.85;;;1.20;99.90;;;;;;5053456;28;20051;-79
2021/12/07 07:51:20;;;;;;;21.55;7.55;;;1.30;99.90;;;;;;5069544;28;20468;-79
2021/12/07 07:53:46;;;;;;;23.27;8.57;;;1.50;99.90;;;;;;5069697;28;20037;-78
2021/12/07 07:56:12;;;;;;;21.95;7.80;;;1.30;99.90;;;;;;5069960;28;20113;-79
2021/12/07 07:58:38;;;;;;;20.73;7.97;;;1.40;99.90;;;;;;5069783;28;20524;-79
2021/12/07 08:01:04;;;;;;;20.83;8.00;;;1.30;99.90;;;;;;5069940;28;20468;-79
2021/12/07 08:03:30;;;;;;;21.73;7.57;;;1.40;99.90;;;;;;5069470;28;20032;-79
2021/12/07 08:05:56;;;;;;;20.25;7.53;;;1.40;99.90;;;;;;5036873;28;20055;-79
2021/12/07 08:08:22;;;;;;;21.40;6.88;;;1.70;99.90;;;;;;5069907;28;20404;-79
2021/12/07 08:10:48;;;;;;;18.25;7.22;;;1.40;99.90;;;;;;5052861;28;20059;-79
2021/12/07 08:13:14;;;;;;;;;;;1.40;99.90;;;;;;5069713;28;20124;-79
2021/12/07 08:15:43;;;;;;;23.48;7.88;;;1.50;99.90;;;;;;5070087;28;19959;-79
2021/12/07 08:18:13;;;;;;;18.30;7.22;;;1.60;99.90;;;;;;5053257;28;20617;-79
2021/12/07 08:20:40;;;;;;;26.20;8.05;;;1.80;99.90;;;;;;5050281;28;20040;-78
2021/12/07 08:23:06;;;;;;;22.23;7.65;;;2.00;99.90;;;;;;5069669;28;20110;-79
2021/12/07 08:25:34;;;;;;;18.85;7.35;;;2.30;99.90;;;;;;5052320;28;20036;-78
2021/12/07 08:28:07;;;;;;;20.95;7.45;;;2.70;99.90;;;;;;5069451;28;20115;-78
2021/12/07 08:30:34;;;;;;;19.20;7.90;;;3.10;99.90;;;;;;5052739;28;20045;-78
2021/12/07 08:33:02;;;;;;;16.58;6.68;;;3.50;99.90;;;;;;5069737;28;20424;-78
2021/12/07 08:35:28;;;;;;;15.77;6.82;;;4.70;99.90;;;;;;5036050;28;20036;-79
2021/12/07 08:37:54;;;;;;;15.45;6.47;;;4.30;99.90;;;;;;5052849;28;20081;-79
2021/12/07 08:40:24;;;;;;;15.48;6.28;;;4.60;99.90;;;;;;5069597;28;20043;-79
2021/12/07 08:42:51;;;;;;;18.13;6.57;;;4.80;99.90;;;;;;5062434;28;20494;-79
2021/12/07 08:45:19;;;;;;;12.13;5.95;;;5.00;99.90;;;;;;5050585;28;20374;-79
2021/12/07 08:47:45;;;;;;;11.77;5.50;;;5.40;99.90;;;;;;5070219;28;20492;-78
2021/12/07 08:50:20;;;;;;;12.63;5.00;;;5.70;99.90;;;;;;5073714;28;20047;-79
2021/12/07 08:52:47;;;;;;;14.38;4.90;;;6.00;99.90;;;;;;5056297;28;20047;-79
2021/12/07 09:00:28;;;;;;;9.77;4.53;;;6.80;99.90;;;;;;5057990;28;20380;-78
2021/12/07 09:02:54;;;;;;;11.10;4.53;;;6.90;99.90;;;;;;5073465;28;20032;-78
2021/12/07 09:05:20;;;;;;;6.45;3.53;;;6.80;99.90;;;;;;5072888;28;20036;-78
2021/12/07 09:07:46;;;;;;;25.53;6.10;;;7.20;99.90;;;;;;5072853;28;20044;-79
2021/12/07 09:10:13;;;;;;;8.48;4.05;;;7.20;99.90;;;;;;5072405;28;20299;-79
2021/12/07 09:12:39;;;;;;;9.45;4.35;;;7.30;99.90;;;;;;5055372;28;20044;-78
2021/12/07 09:15:06;;;;;;;7.63;3.70;;;7.70;99.90;;;;;;5055992;28;20512;-76
2021/12/07 09:17:31;;;;;;;7.43;3.83;;;8.00;99.90;;;;;;5070451;28;20064;-79
2021/12/07 09:19:57;;;;;;;12.27;3.95;;;8.30;99.90;;;;;;5071052;28;20067;-78
2021/12/07 09:22:28;;;;;;;8.27;4.13;;;8.40;99.90;;;;;;5070850;28;20094;-79
2021/12/07 09:24:54;;;;;;;9.30;3.88;;;8.80;99.90;;;;;;5055420;28;20041;-79
2021/12/07 09:27:20;;;;;;;9.55;3.13;;;9.10;99.90;;;;;;5038268;28;20116;-79
2021/12/07 09:29:46;;;;;;;12.00;4.03;;;9.40;99.90;;;;;;5072069;28;20083;-79
2021/12/07 09:32:12;;;;;;;6.68;3.20;;;9.40;99.90;;;;;;5055705;28;20041;-79
2021/12/07 09:34:37;;;;;;;14.48;4.35;;;9.40;99.90;;;;;;5055747;28;21512;-78
2021/12/07 09:37:03;;;;;;;5.93;3.43;;;9.10;99.90;;;;;;5055598;28;20044;-79
2021/12/07 09:39:29;;;;;;;8.52;3.42;;;9.00;99.90;;;;;;5072167;28;20943;-78
2021/12/07 09:41:55;;;;;;;7.32;3.75;;;8.90;99.90;;;;;;5072926;28;20036;-79
2021/12/07 09:44:21;;;;;;;7.80;3.60;;;8.60;99.90;;;;;;5055776;28;20040;-79
2021/12/07 09:46:47;;;;;;;7.57;3.75;;;8.60;99.90;;;;;;5054959;28;20048;-78
2021/12/07 09:49:13;;;;;;;7.20;3.17;;;8.60;99.90;;;;;;5072500;28;20504;-79
2021/12/07 09:51:40;;;;;;;7.38;3.50;;;9.00;99.90;;;;;;5054856;28;20049;-79
2021/12/07 09:54:08;;;;;;;8.43;2.90;;;9.60;99.90;;;;;;5072090;28;20114;-79
2021/12/07 09:56:35;;;;;;;6.30;3.70;;;9.40;99.90;;;;;;5071841;28;20389;-78
2021/12/07 09:59:03;;;;;;;9.77;3.15;;;9.70;99.90;;;;;;5038383;28;20419;-79
2021/12/07 10:01:30;;;;;;;6.95;3.35;;;9.90;99.90;;;;;;5071390;28;20051;-79
2021/12/07 10:03:56;;;;;;;7.63;3.13;;;10.50;99.90;;;;;;5072190;28;20040;-79
2021/12/07 10:06:22;;;;;;;7.47;3.13;;;10.60;99.90;;;;;;5055359;28;20399;-79
2021/12/07 10:08:48;;;;;;;5.72;2.90;;;10.30;99.90;;;;;;5054838;28;20056;-79
2021/12/07 10:11:15;;;;;;;8.15;3.05;;;10.10;99.90;;;;;;5047526;28;20101;-79
2021/12/07 10:13:44;;;;;;;8.27;3.17;;;10.00;99.90;;;;;;5054482;28;20064;-79
2021/12/07 10:16:15;;;;;;;9.30;3.20;;;9.60;99.90;;;;;;5071443;28;20043;-79
2021/12/07 10:18:42;;;;;;;8.75;2.78;;;9.20;99.90;;;;;;5054840;28;20527;-79
2021/12/07 10:21:13;;;;;;;6.22;3.05;;;9.10;99.90;;;;;;5071571;28;20116;-79
2021/12/07 10:23:45;;;;;;;13.13;3.08;;;8.90;99.90;;;;;;5069312;28;20056;-78
2021/12/07 10:26:21;;;;;;;8.45;3.03;;;8.70;99.90;;;;;;5071453;28;20067;-79
2021/12/07 10:28:59;;;;;;;10.60;3.10;;;9.20;99.90;;;;;;5052584;28;20101;-79
2021/12/07 10:31:41;;;;;;;9.48;3.10;;;9.70;99.90;;;;;;5102540;28;20116;-78
2021/12/07 10:34:13;;;;;;;6.32;2.70;;;10.70;99.90;;;;;;5054368;28;20078;-78
2021/12/07 10:36:46;;;;;;;5.10;2.40;;;11.00;99.90;;;;;;5070848;28;20135;-78
2021/12/07 10:39:18;;;;;;;6.63;2.53;;;11.40;99.90;;;;;;5054323;28;20060;-78
2021/12/07 10:41:48;;;;;;;7.78;2.30;;;11.90;99.90;;;;;;5071351;28;20403;-78
2021/12/07 10:44:17;;;;;;;12.27;3.33;;;12.30;99.90;;;;;;5054634;28;20119;-78
2021/12/07 10:46:45;;;;;;;10.95;2.97;;;12.60;99.90;;;;;;5070884;28;20040;-78
2021/12/07 10:49:29;;;;;;;7.22;2.60;;;12.60;99.90;;;;;;5054626;28;20036;-78
2021/12/07 10:52:13;;;;;;;7.68;3.00;;;12.80;99.90;;;;;;5050519;28;20042;-78
2021/12/07 10:54:41;;;;;;;7.18;2.83;;;12.60;99.90;;;;;;5070792;28;20109;-78
2021/12/07 10:57:11;;;;;;;11.98;3.20;;;13.10;99.90;;;;;;5054722;28;20040;-78
2021/12/07 10:59:38;;;;;;;10.30;3.35;;;12.90;99.90;;;;;;5068599;28;20424;-78
2021/12/07 11:02:16;;;;;;;10.45;2.88;;;12.30;99.90;;;;;;5071503;28;20056;-78
2021/12/07 11:04:44;;;;;;;7.43;3.17;;;12.30;99.90;;;;;;5065837;28;20048;-78
2021/12/07 11:07:21;;;;;;;7.93;3.40;;;12.70;99.90;;;;;;5071316;28;20553;-79
2021/12/07 11:10:17;;;;;;;9.23;3.30;;;13.00;99.90;;;;;;5070306;28;20122;-79
2021/12/07 11:15:34;;;;;;;8.93;3.00;;;12.60;99.90;;;;;;5068481;28;20051;-80
2021/12/07 11:18:08;;;;;;;7.22;2.95;;;13.40;99.90;;;;;;5071476;28;20051;-80
2021/12/07 11:20:35;;;;;;;6.70;2.88;;;14.20;99.90;;;;;;5070460;28;20040;-80
2021/12/07 11:23:13;;;;;;;6.35;2.75;;;14.30;99.90;;;;;;5068913;28;20040;-81
2021/12/07 11:31:23;;;;;;;8.10;2.55;;;14.10;99.90;;;;;;5067145;28;20086;-81
2021/12/07 11:33:53;;;;;;;7.55;2.63;;;14.10;99.90;;;;;;5067465;28;20052;-80
2021/12/07 11:36:26;;;;;;;8.45;2.78;;;14.60;99.90;;;;;;5070808;28;20712;-81
2021/12/07 11:38:54;;;;;;;7.00;2.70;;;15.10;99.90;;;;;;5053279;28;20036;-80
2021/12/07 11:41:25;;;;;;;8.05;2.80;;;15.10;99.90;;;;;;5068055;28;20174;-80
2021/12/07 11:43:58;;;;;;;6.20;2.42;;;14.70;99.90;;;;;;5070153;28;20115;-80
2021/12/07 11:46:26;;;;;;;11.05;2.70;;;14.70;99.90;;;;;;5070449;28;20095;-81
2021/12/07 11:49:13;;;;;;;7.75;2.38;;;14.60;99.90;;;;;;5053748;28;20048;-81
2021/12/07 11:51:42;;;;;;;9.05;2.53;;;14.80;99.90;;;;;;5069434;28;20068;-80
2021/12/07 11:54:11;;;;;;;7.70;2.63;;;14.50;99.90;;;;;;5070095;28;20108;-80
2021/12/07 11:56:37;;;;;;;8.35;2.65;;;14.70;99.90;;;;;;5069443;28;20041;-80
2021/12/07 11:59:05;;;;;;;10.38;2.50;;;14.30;99.90;;;;;;5070532;28;20102;-80
2021/12/07 12:01:30;;;;;;;7.72;2.65;;;14.40;99.90;;;;;;5070604;28;20051;-80
2021/12/07 12:03:56;;;;;;;6.95;2.25;;;14.00;99.90;;;;;;5052778;28;20040;-80
2021/12/07 12:06:22;;;;;;;9.68;2.55;;;14.20;99.90;;;;;;5070161;28;20063;-80
2021/12/07 12:08:50;;;;;;;12.25;2.53;;;14.30;99.90;;;;;;5052890;28;20072;-81
2021/12/07 12:11:36;;;;;;;11.90;2.72;;;14.20;99.90;;;;;;5053530;28;20044;-80
2021/12/07 12:14:23;;;;;;;7.28;2.33;;;14.00;99.90;;;;;;5069460;28;20424;-80
2021/12/07 12:17:10;;;;;;;7.63;2.63;;;14.00;99.90;;;;;;5069597;28;20089;-81
2021/12/07 12:19:38;;;;;;;6.90;2.15;;;14.10;99.90;;;;;;5050556;28;20033;-81
2021/12/07 12:22:20;;;;;;;6.03;1.90;;;13.80;99.90;;;;;;5069418;28;20037;-81
2021/12/07 12:24:51;;;;;;;9.70;2.30;;;13.90;99.90;;;;;;5065350;28;20051;-80
2021/12/07 12:27:17;;;;;;;6.53;2.28;;;13.80;99.90;;;;;;5069865;28;20040;-81
2021/12/07 12:29:45;;;;;;;10.67;2.60;;;13.10;99.90;;;;;;5052575;28;20553;-81
2021/12/07 12:32:11;;;;;;;8.07;2.38;;;13.30;99.90;;;;;;5052997;28;20424;-81
2021/12/07 12:34:47;;;;;;;7.55;2.55;;;13.50;99.90;;;;;;5069433;28;20056;-80
2021/12/07 12:37:20;;;;;;;6.30;2.23;;;13.70;99.90;;;;;;5053261;28;20111;-81
2021/12/07 12:39:52;;;;;;;7.97;2.67;;;13.00;99.90;;;;;;5067067;28;20059;-81
2021/12/07 12:42:26;;;;;;;12.00;2.40;;;12.50;99.90;;;;;;5069798;28;20059;-81
2021/12/07 12:45:07;;;;;;;10.52;2.35;;;12.00;99.90;;;;;;5067221;28;20044;-81
2021/12/07 12:47:33;;;;;;;8.50;2.22;;;11.90;99.90;;;;;;5069423;28;20039;-81
2021/12/07 12:50:46;;;;;;;10.25;2.65;;;11.00;99.90;;;;;;5069677;28;20496;-81
2021/12/07 12:53:15;;;;;;;8.85;2.40;;;10.60;99.90;;;;;;5063725;28;20096;-80
2021/12/07 12:56:10;;;;;;;7.60;2.08;;;10.30;99.90;;;;;;5069562;28;20071;-81
2021/12/07 12:58:46;;;;;;;11.55;2.30;;;10.10;99.90;;;;;;5068202;28;20074;-81
2021/12/07 13:01:20;;;;;;;7.70;2.42;;;9.90;99.90;;;;;;5067865;28;20123;-81
2021/12/07 13:03:55;;;;;;;9.15;2.67;;;9.70;99.90;;;;;;5052667;28;20048;-81
2021/12/07 13:06:39;;;;;;;8.75;2.40;;;9.50;99.90;;;;;;5051292;28;20089;-81
2021/12/07 13:09:09;;;;;;;9.70;2.75;;;9.40;99.90;;;;;;5066628;28;20108;-82
2021/12/07 13:11:43;;;;;;;8.10;2.70;;;9.20;99.90;;;;;;5067551;28;20048;-81
2021/12/07 13:14:24;;;;;;;7.20;2.95;;;9.20;99.90;;;;;;5066627;28;20048;-82
2021/12/07 13:16:51;;;;;;;8.85;2.42;;;9.00;99.90;;;;;;5067192;28;20040;-81
2021/12/07 13:19:18;;;;;;;10.93;2.60;;;9.00;99.90;;;;;;5069348;28;20055;-82
2021/12/07 13:21:45;;;;;;;8.77;2.70;;;9.10;99.90;;;;;;5051883;28;20052;-82
2021/12/07 13:24:33;;;;;;;9.32;2.78;;;9.00;99.90;;;;;;5069273;28;20072;-82
2021/12/07 13:27:00;;;;;;;7.60;3.00;;;9.10;99.90;;;;;;5069747;28;21012;-82
2021/12/07 13:29:27;;;;;;;9.75;3.00;;;9.20;99.90;;;;;;5069421;28;20484;-82
2021/12/07 13:31:57;;;;;;;;;;;8.90;99.90;;;;;;5069164;28;20037;-82
2021/12/07 13:34:28;;;;;;;8.82;2.80;;;8.90;99.90;;;;;;5069633;28;19916;-82
2021/12/07 13:36:58;;;;;;;11.43;3.28;;;8.80;99.90;;;;;;5070120;28;20036;-82
2021/12/07 13:39:24;;;;;;;15.10;3.45;;;8.50;99.90;;;;;;5073365;28;20032;-82
2021/12/07 13:41:49;;;;;;;7.35;2.78;;;8.60;99.90;;;;;;5055876;28;20051;-82
2021/12/07 13:44:16;;;;;;;10.50;3.20;;;8.50;99.90;;;;;;5072737;28;20416;-82
2021/12/07 13:46:42;;;;;;;10.57;3.08;;;8.50;99.90;;;;;;5055429;28;20051;-82
2021/12/07 13:49:11;;;;;;;6.93;3.00;;;8.40;99.90;;;;;;5056286;28;20036;-82
2021/12/07 13:51:38;;;;;;;13.60;4.30;;;8.50;99.90;;;;;;5072527;28;20480;-79
2021/12/07 13:54:05;;;;;;;11.38;3.20;;;8.50;99.90;;;;;;5039035;28;20098;-80
2021/12/07 13:56:38;;;;;;;7.10;3.00;;;8.50;99.90;;;;;;5039451;28;20032;-82
2021/12/07 13:59:13;;;;;;;7.97;2.60;;;8.50;99.90;;;;;;5072080;28;20036;-82
2021/12/07 14:01:41;;;;;;;8.52;2.92;;;8.50;99.90;;;;;;5071701;28;20055;-82
2021/12/07 14:04:08;;;;;;;11.48;3.25;;;8.50;99.90;;;;;;5056301;28;20040;-81
2021/12/07 14:06:35;;;;;;;9.05;3.17;;;8.40;99.90;;;;;;5072518;28;20044;-81
2021/12/07 14:09:07;;;;;;;11.48;4.07;;;8.30;99.90;;;;;;5055556;28;20070;-81
2021/12/07 14:11:34;;;;;;;10.93;3.40;;;8.20;99.90;;;;;;5071833;28;20492;-81
2021/12/07 14:14:02;;;;;;;9.52;3.60;;;9.10;99.90;;;;;;5038790;28;20036;-81
2021/12/07 14:16:28;;;;;;;6.15;2.90;;;7.90;99.90;;;;;;5072281;28;20036;-81
2021/12/07 14:18:54;;;;;;;;;;;7.90;99.90;;;;;;5072502;28;20024;-81
2021/12/07 14:21:21;;;;;;;12.32;3.60;;;7.60;99.90;;;;;;5072701;28;19923;-82
2021/12/07 14:23:52;;;;;;;10.93;3.30;;;7.50;99.90;;;;;;5071562;28;20044;-81
2021/12/07 14:26:19;;;;;;;9.93;3.92;;;7.50;99.90;;;;;;5055311;28;20044;-81
2021/12/07 14:28:56;;;;;;;12.38;3.45;;;7.50;99.90;;;;;;5055163;28;20098;-82
2021/12/07 14:31:25;;;;;;;9.98;3.85;;;7.50;99.90;;;;;;5072243;28;20374;-81
2021/12/07 14:33:58;;;;;;;9.45;3.83;;;7.30;99.90;;;;;;5072284;28;20044;-81
2021/12/07 14:36:31;;;;;;;9.38;3.53;;;7.40;99.90;;;;;;5055373;28;20125;-82
2021/12/07 14:39:15;;;;;;;11.35;3.42;;;7.30;99.90;;;;;;5069399;28;20028;-82
2021/12/07 14:41:47;;;;;;;8.32;3.38;;;7.30;99.90;;;;;;5070382;28;20377;-82
2021/12/07 14:44:28;;;;;;;8.27;3.63;;;7.20;99.90;;;;;;5071898;28;20041;-82
2021/12/07 14:46:56;;;;;;;9.10;3.40;;;8.20;99.90;;;;;;5053313;28;20048;-82
2021/12/07 14:49:26;;;;;;;10.77;3.38;;;7.10;99.90;;;;;;5071552;28;20043;-82
2021/12/07 14:51:52;;;;;;;12.73;4.03;;;7.10;99.90;;;;;;5068497;28;20041;-82
2021/12/07 14:54:19;;;;;;;12.00;3.90;;;7.00;99.90;;;;;;5071852;28;20086;-82